createdAt,value
2018-08-09T00:01:02.063Z,20.10
2018-08-09T00:03:30.764Z,20.10
2018-08-09T00:05:59.208Z,20.10
2018-08-09T00:08:27.739Z,20.10
2018-08-09T00:10:56.192Z,20.20
2018-08-09T00:13:24.632Z,20.30
2018-08-09T00:15:53.094Z,20.30
2018-08-09T00:18:21.538Z,20.40
2018-08-09T00:20:49.961Z,20.30
2018-08-09T00:23:18.434Z,20.20
2018-08-09T00:25:46.858Z,20.20
2018-08-09T00:28:15.306Z,20.10
2018-08-09T00:30:43.751Z,20.20
2018-08-09T00:33:12.213Z,20.20
2018-08-09T00:35:40.646Z,20.20
2018-08-09T00:38:09.121Z,20.10
2018-08-09T00:40:37.548Z,20.10
2018-08-09T00:43:06.010Z,20.10
2018-08-09T00:45:34.412Z,20.20
2018-08-09T00:48:02.853Z,20.20
2018-08-09T00:50:31.276Z,20.20
2018-08-09T00:52:59.710Z,20.20
2018-08-09T00:55:28.349Z,20.20
2018-08-09T00:57:56.768Z,20.20
2018-08-09T01:00:25.233Z,20.30
2018-08-09T01:02:53.666Z,20.20
2018-08-09T01:05:22.114Z,20.30
2018-08-09T01:07:50.599Z,20.30
2018-08-09T01:10:19.090Z,20.30
2018-08-09T01:12:47.553Z,20.30
2018-08-09T01:15:16.057Z,20.30
2018-08-09T01:17:44.500Z,20.20
2018-08-09T01:20:12.970Z,20.10
2018-08-09T01:22:41.441Z,20.10
2018-08-09T01:25:09.924Z,20.00
2018-08-09T01:27:38.379Z,20.00
2018-08-09T01:30:06.864Z,20.00
2018-08-09T01:32:35.340Z,20.10
2018-08-09T01:35:03.845Z,20.20
2018-08-09T01:37:32.323Z,20.20
2018-08-09T01:40:00.760Z,20.10
2018-08-09T01:42:40.360Z,20.00
2018-08-09T01:45:08.791Z,20.10
2018-08-09T01:47:37.223Z,20.10
2018-08-09T01:50:05.656Z,20.10
2018-08-09T01:52:34.112Z,20.00
2018-08-09T01:55:02.604Z,20.10
2018-08-09T01:57:31.040Z,20.10
2018-08-09T01:59:59.694Z,20.10
2018-08-09T02:02:28.170Z,20.10
2018-08-09T02:04:56.653Z,20.10
2018-08-09T02:07:25.228Z,20.10
2018-08-09T02:09:53.676Z,20.00
2018-08-09T02:12:22.182Z,20.00
2018-08-09T02:14:50.613Z,20.00
2018-08-09T02:17:19.065Z,19.90
2018-08-09T02:19:47.512Z,20.00
2018-08-09T02:22:15.975Z,20.00
2018-08-09T02:24:44.414Z,20.00
2018-08-09T02:27:12.857Z,20.00
2018-08-09T02:29:41.293Z,20.00
2018-08-09T02:32:09.737Z,19.90
2018-08-09T02:34:38.180Z,20.00
2018-08-09T02:37:06.736Z,20.00
2018-08-09T02:39:35.174Z,19.90
2018-08-09T02:42:03.649Z,19.90
2018-08-09T02:44:32.095Z,19.80
2018-08-09T02:47:00.544Z,19.70
2018-08-09T02:49:28.985Z,19.70
2018-08-09T02:51:57.420Z,19.60
2018-08-09T02:54:25.855Z,19.50
2018-08-09T02:56:54.285Z,19.40
2018-08-09T02:59:22.728Z,19.40
2018-08-09T03:01:51.190Z,19.30
2018-08-09T03:04:19.613Z,19.20
2018-08-09T03:06:48.057Z,19.20
2018-08-09T03:09:16.468Z,19.20
2018-08-09T03:11:44.903Z,19.30
2018-08-09T03:14:13.360Z,19.40
2018-08-09T03:16:41.784Z,19.50
2018-08-09T03:19:10.233Z,19.60
2018-08-09T03:21:38.733Z,19.60
2018-08-09T03:24:07.184Z,19.70
2018-08-09T03:26:35.614Z,19.80
2018-08-09T03:29:04.095Z,19.90
2018-08-09T03:31:32.545Z,19.90
2018-08-09T03:34:01.029Z,20.00
2018-08-09T03:36:29.844Z,20.00
2018-08-09T03:38:58.296Z,20.00
2018-08-09T03:41:26.741Z,20.10
2018-08-09T03:43:55.228Z,20.10
2018-08-09T03:46:23.684Z,20.20
2018-08-09T03:48:52.108Z,20.20
2018-08-09T03:51:20.546Z,20.20
2018-08-09T03:53:48.968Z,20.20
2018-08-09T03:56:17.426Z,20.20
2018-08-09T03:58:45.994Z,20.20
2018-08-09T04:01:14.447Z,20.20
2018-08-09T04:03:42.900Z,20.20
2018-08-09T04:06:11.365Z,20.10
2018-08-09T04:08:39.805Z,20.10
2018-08-09T04:11:08.372Z,20.10
2018-08-09T04:13:36.825Z,20.10
2018-08-09T04:16:05.605Z,20.10
2018-08-09T04:18:34.046Z,20.10
2018-08-09T04:21:02.500Z,20.10
2018-08-09T04:23:30.937Z,20.10
2018-08-09T04:25:59.352Z,20.10
2018-08-09T04:28:27.788Z,20.20
2018-08-09T04:30:56.217Z,20.30
2018-08-09T04:33:24.677Z,20.30
2018-08-09T04:35:53.118Z,20.30
2018-08-09T04:38:21.581Z,20.40
2018-08-09T04:40:50.001Z,20.40
2018-08-09T04:43:18.441Z,20.50
2018-08-09T04:45:46.880Z,20.50
2018-08-09T04:48:15.333Z,20.60
2018-08-09T04:50:43.766Z,20.60
2018-08-09T04:53:12.201Z,20.60
2018-08-09T04:55:40.658Z,20.80
2018-08-09T04:58:09.127Z,20.70
2018-08-09T05:00:37.588Z,20.70
2018-08-09T05:03:06.033Z,20.70
2018-08-09T05:05:34.482Z,20.70
2018-08-09T05:08:02.900Z,20.70
2018-08-09T05:10:31.352Z,20.70
2018-08-09T05:12:59.793Z,20.60
2018-08-09T05:15:28.238Z,20.60
2018-08-09T05:17:56.662Z,20.50
2018-08-09T05:20:25.140Z,20.50
2018-08-09T05:22:53.618Z,20.50
2018-08-09T05:25:22.085Z,20.50
2018-08-09T05:27:50.516Z,20.60
2018-08-09T05:30:25.686Z,20.60
2018-08-09T05:32:54.126Z,20.60
2018-08-09T05:35:22.613Z,20.60
2018-08-09T05:37:51.056Z,20.70
2018-08-09T05:40:19.504Z,20.70
2018-08-09T05:42:47.947Z,20.70
2018-08-09T05:45:16.465Z,20.80
2018-08-09T05:47:44.889Z,20.90
2018-08-09T05:50:13.345Z,21.00
2018-08-09T05:52:41.847Z,21.60
2018-08-09T05:55:10.248Z,22.20
2018-08-09T05:57:38.675Z,23.00
2018-08-09T06:00:07.752Z,23.70
2018-08-09T06:02:36.211Z,24.10
2018-08-09T06:05:05.412Z,24.60
2018-08-09T06:07:33.909Z,24.90
2018-08-09T06:10:02.349Z,25.20
2018-08-09T06:12:31.511Z,25.50
2018-08-09T06:14:59.956Z,25.40
2018-08-09T06:17:28.460Z,25.00
2018-08-09T06:19:56.892Z,24.50
2018-08-09T06:22:25.537Z,23.80
2018-08-09T06:24:54.081Z,23.20
2018-08-09T06:27:22.545Z,22.80
2018-08-09T06:29:51.017Z,22.50
2018-08-09T06:32:19.453Z,22.20
2018-08-09T06:34:47.908Z,21.90
2018-08-09T06:37:16.472Z,21.90
2018-08-09T06:39:44.953Z,21.90
2018-08-09T06:42:13.480Z,21.90
2018-08-09T06:44:41.938Z,22.00
2018-08-09T06:47:10.382Z,22.60
2018-08-09T06:49:38.885Z,23.20
2018-08-09T06:52:07.560Z,23.20
2018-08-09T06:54:36.070Z,23.50
2018-08-09T06:57:04.844Z,23.80
2018-08-09T06:59:33.313Z,24.90
2018-08-09T07:02:01.776Z,25.50
2018-08-09T07:04:30.240Z,26.40
2018-08-09T07:06:59.579Z,27.00
2018-08-09T07:09:28.061Z,27.30
2018-08-09T07:11:56.510Z,27.90
2018-08-09T07:14:24.973Z,29.10
2018-08-09T07:16:53.396Z,28.00
2018-08-09T07:19:21.855Z,27.30
2018-08-09T07:21:50.296Z,26.70
2018-08-09T07:24:18.769Z,26.80
2018-08-09T07:26:47.225Z,27.40
2018-08-09T07:29:15.684Z,28.60
2018-08-09T07:31:44.160Z,29.60
2018-08-09T07:34:12.637Z,29.40
2018-08-09T07:36:41.140Z,28.50
2018-08-09T07:39:10.124Z,27.70
2018-08-09T07:41:39.624Z,27.20
2018-08-09T07:44:08.189Z,27.10
2018-08-09T07:46:36.673Z,26.90
2018-08-09T07:49:05.117Z,26.90
2018-08-09T07:51:33.681Z,27.30
2018-08-09T07:54:02.138Z,27.10
2018-08-09T07:56:30.598Z,26.40
2018-08-09T07:58:59.022Z,26.70
2018-08-09T08:01:27.477Z,27.40
2018-08-09T08:03:55.957Z,28.80
2018-08-09T08:06:24.477Z,29.70
2018-08-09T08:08:52.925Z,30.60
2018-08-09T08:11:21.397Z,31.20
2018-08-09T08:13:49.872Z,31.80
2018-08-09T08:16:18.369Z,31.50
2018-08-09T08:18:46.866Z,32.10
2018-08-09T08:21:15.373Z,33.20
2018-08-09T08:23:43.815Z,33.80
2018-08-09T08:26:12.290Z,33.60
2018-08-09T08:28:40.705Z,33.50
2018-08-09T08:31:09.192Z,32.50
2018-08-09T08:33:37.643Z,32.90
2018-08-09T08:36:06.160Z,33.30
2018-08-09T08:38:34.627Z,33.60
2018-08-09T08:41:03.145Z,32.60
2018-08-09T08:43:31.619Z,30.90
2018-08-09T08:46:00.085Z,29.70
2018-08-09T08:48:28.522Z,29.10
2018-08-09T08:50:56.990Z,29.40
2018-08-09T08:53:25.472Z,29.90
2018-08-09T08:55:53.920Z,30.90
2018-08-09T08:58:22.383Z,30.70
2018-08-09T09:00:50.902Z,30.40
2018-08-09T09:03:19.313Z,29.90
2018-08-09T09:05:47.764Z,29.20
2018-08-09T09:08:16.213Z,28.90
2018-08-09T09:10:44.728Z,28.90
2018-08-09T09:13:13.190Z,28.70
2018-08-09T09:15:41.679Z,28.70
2018-08-09T09:18:10.192Z,28.40
2018-08-09T09:20:38.697Z,28.40
2018-08-09T09:23:07.429Z,28.80
2018-08-09T09:25:35.902Z,29.50
2018-08-09T09:28:04.360Z,30.00
2018-08-09T09:30:32.818Z,30.00
2018-08-09T09:33:01.270Z,29.90
2018-08-09T09:35:29.776Z,31.00
2018-08-09T09:37:58.231Z,32.10
2018-08-09T09:40:26.736Z,33.60
2018-08-09T09:42:55.195Z,33.90
2018-08-09T09:45:23.681Z,34.70
2018-08-09T09:47:52.174Z,34.00
2018-08-09T09:50:20.676Z,33.90
2018-08-09T09:52:49.131Z,34.70
2018-08-09T09:55:17.583Z,34.10
2018-08-09T09:57:46.066Z,34.10
2018-08-09T10:00:19.860Z,34.50
2018-08-09T10:02:48.310Z,33.90
2018-08-09T10:05:16.939Z,34.10
2018-08-09T10:07:45.405Z,34.30
2018-08-09T10:10:13.849Z,34.80
2018-08-09T10:12:42.845Z,35.30
2018-08-09T10:15:11.584Z,34.60
2018-08-09T10:17:40.077Z,34.70
2018-08-09T10:20:09.273Z,34.80
2018-08-09T10:22:37.953Z,34.90
2018-08-09T10:25:06.809Z,34.00
2018-08-09T10:27:35.264Z,34.20
2018-08-09T10:30:03.977Z,34.50
2018-08-09T10:32:32.436Z,34.40
2018-08-09T10:35:00.913Z,33.60
2018-08-09T10:37:29.617Z,32.90
2018-08-09T10:39:58.082Z,33.20
2018-08-09T10:42:26.534Z,32.40
2018-08-09T10:44:55.013Z,31.90
2018-08-09T10:47:23.457Z,31.70
2018-08-09T10:49:51.913Z,30.80
2018-08-09T10:52:20.450Z,30.50
2018-08-09T10:54:48.893Z,30.40
2018-08-09T10:57:17.367Z,30.70
2018-08-09T10:59:45.854Z,31.60
2018-08-09T11:02:14.305Z,31.90
2018-08-09T11:04:42.789Z,32.20
2018-08-09T11:07:11.237Z,32.90
2018-08-09T11:09:39.685Z,32.50
2018-08-09T11:12:08.175Z,32.70
2018-08-09T11:14:36.633Z,32.60
2018-08-09T11:17:05.207Z,32.40
2018-08-09T11:19:33.623Z,31.70
2018-08-09T11:22:02.105Z,31.40
2018-08-09T11:24:30.544Z,31.60
2018-08-09T11:26:59.021Z,31.70
2018-08-09T11:29:27.468Z,32.40
2018-08-09T11:31:55.917Z,32.40
2018-08-09T11:34:24.366Z,32.40
2018-08-09T11:36:52.827Z,32.30
2018-08-09T11:39:21.260Z,32.20
2018-08-09T11:41:49.696Z,32.10
2018-08-09T11:44:18.155Z,31.90
2018-08-09T11:46:46.621Z,32.00
2018-08-09T11:49:15.140Z,31.80
2018-08-09T11:51:43.543Z,31.40
2018-08-09T11:54:11.996Z,31.20
2018-08-09T11:56:40.550Z,31.10
2018-08-09T11:59:08.948Z,30.90
2018-08-09T12:01:37.396Z,30.80
2018-08-09T12:04:06.044Z,30.60
2018-08-09T12:06:34.500Z,30.60
2018-08-09T12:09:03.061Z,30.60
2018-08-09T12:11:31.533Z,30.70
2018-08-09T12:14:00.006Z,30.60
2018-08-09T12:16:28.456Z,30.60
2018-08-09T12:18:56.972Z,30.70
2018-08-09T12:21:25.445Z,30.50
2018-08-09T12:23:53.896Z,30.40
2018-08-09T12:26:22.438Z,30.40
2018-08-09T12:28:50.900Z,30.40
2018-08-09T12:31:19.343Z,30.50
2018-08-09T12:33:47.792Z,30.40
2018-08-09T12:36:16.294Z,30.50
2018-08-09T12:38:44.761Z,30.50
2018-08-09T12:41:13.215Z,30.40
2018-08-09T12:43:41.722Z,30.40
2018-08-09T12:46:10.202Z,30.40
2018-08-09T12:48:38.658Z,30.30
2018-08-09T12:51:07.171Z,30.20
2018-08-09T12:53:35.629Z,30.10
2018-08-09T12:56:04.126Z,30.10
2018-08-09T12:58:32.557Z,29.80
2018-08-09T13:01:01.057Z,29.70
2018-08-09T13:03:29.548Z,29.60
2018-08-09T13:05:58.006Z,29.40
2018-08-09T13:08:26.626Z,29.20
2018-08-09T13:10:55.069Z,29.00
2018-08-09T13:13:23.561Z,28.80
2018-08-09T13:15:52.088Z,28.30
2018-08-09T13:18:20.610Z,27.90
2018-08-09T13:20:49.081Z,27.40
2018-08-09T13:23:17.596Z,26.70
2018-08-09T13:25:46.058Z,26.20
2018-08-09T13:28:14.587Z,25.70
2018-08-09T13:30:43.037Z,25.40
2018-08-09T13:33:11.528Z,25.00
2018-08-09T13:35:40.060Z,24.80
2018-08-09T13:38:08.571Z,24.70
2018-08-09T13:40:37.038Z,24.50
2018-08-09T13:43:05.655Z,24.40
2018-08-09T13:45:34.140Z,24.40
2018-08-09T13:48:02.617Z,24.30
2018-08-09T13:50:31.082Z,24.30
2018-08-09T13:52:59.569Z,24.30
2018-08-09T13:55:28.056Z,24.30
2018-08-09T13:57:56.579Z,24.20
2018-08-09T14:00:25.119Z,24.20
2018-08-09T14:02:53.608Z,24.20
2018-08-09T14:05:22.063Z,24.30
2018-08-09T14:07:50.556Z,24.40
2018-08-09T14:10:19.105Z,24.40
2018-08-09T14:12:47.599Z,24.50
2018-08-09T14:15:16.281Z,24.50
2018-08-09T14:17:44.779Z,24.70
2018-08-09T14:20:15.912Z,24.80
2018-08-09T14:22:44.448Z,24.90
2018-08-09T14:25:13.359Z,25.20
2018-08-09T14:27:41.944Z,25.40
2018-08-09T14:30:13.065Z,25.70
2018-08-09T14:32:41.895Z,25.80
2018-08-09T14:35:12.726Z,25.90
2018-08-09T14:37:42.233Z,26.00
2018-08-09T14:40:11.471Z,25.90
2018-08-09T14:42:40.120Z,25.80
2018-08-09T14:45:10.607Z,25.70
2018-08-09T14:47:39.116Z,25.60
2018-08-09T14:50:07.678Z,25.70
2018-08-09T14:52:36.575Z,25.60
2018-08-09T14:55:06.384Z,25.60
2018-08-09T14:57:34.984Z,25.50
2018-08-09T15:00:04.994Z,25.40
2018-08-09T15:02:33.488Z,25.30
2018-08-09T15:05:01.949Z,25.30
2018-08-09T15:07:30.399Z,25.10
2018-08-09T15:09:58.883Z,25.10
2018-08-09T15:12:27.370Z,25.00
2018-08-09T15:14:55.917Z,24.90
2018-08-09T15:17:24.380Z,24.90
2018-08-09T15:19:52.873Z,24.90
2018-08-09T15:22:21.320Z,25.00
2018-08-09T15:24:49.774Z,25.10
2018-08-09T15:27:18.261Z,25.10
2018-08-09T15:29:47.029Z,25.20
2018-08-09T15:32:15.508Z,25.00
2018-08-09T15:34:43.970Z,25.10
2018-08-09T15:37:12.443Z,25.10
2018-08-09T15:39:40.926Z,25.10
2018-08-09T15:42:09.415Z,25.00
2018-08-09T15:44:37.891Z,25.00
2018-08-09T15:47:06.616Z,25.10
2018-08-09T15:49:35.087Z,25.10
2018-08-09T15:52:03.892Z,24.80
2018-08-09T15:54:33.385Z,24.60
2018-08-09T15:57:01.925Z,24.50
2018-08-09T15:59:30.415Z,24.40
2018-08-09T16:01:58.921Z,24.40
2018-08-09T16:04:27.432Z,24.40
2018-08-09T16:06:55.921Z,24.50
2018-08-09T16:09:24.404Z,24.30
2018-08-09T16:11:52.962Z,24.30
2018-08-09T16:14:21.440Z,24.10
2018-08-09T16:16:49.904Z,24.00
2018-08-09T16:19:18.383Z,24.00
2018-08-09T16:21:49.808Z,24.10
2018-08-09T16:24:18.877Z,24.10
2018-08-09T16:26:47.412Z,24.30
2018-08-09T16:29:15.879Z,24.40
2018-08-09T16:31:44.956Z,24.50
2018-08-09T16:34:13.433Z,24.40
2018-08-09T16:36:41.881Z,24.40
2018-08-09T16:39:12.333Z,24.50
2018-08-09T16:41:41.101Z,24.40
2018-08-09T16:44:10.209Z,24.40
2018-08-09T16:46:38.710Z,24.50
2018-08-09T16:49:07.259Z,24.50
2018-08-09T16:51:35.734Z,24.40
2018-08-09T16:54:04.273Z,24.40
2018-08-09T16:56:32.847Z,24.40
2018-08-09T16:59:01.348Z,24.50
2018-08-09T17:01:29.802Z,24.60
2018-08-09T17:03:58.324Z,24.80
2018-08-09T17:06:26.814Z,25.00
2018-08-09T17:08:56.254Z,25.30
2018-08-09T17:11:24.752Z,25.60
2018-08-09T17:13:53.334Z,25.60
2018-08-09T17:16:22.017Z,25.60
2018-08-09T17:18:50.548Z,25.60
2018-08-09T17:21:19.076Z,25.70
2018-08-09T17:23:47.555Z,25.70
2018-08-09T17:26:16.022Z,25.80
2018-08-09T17:28:44.507Z,25.70
2018-08-09T17:31:12.991Z,25.70
2018-08-09T17:33:41.457Z,25.70
2018-08-09T17:36:09.957Z,25.60
2018-08-09T17:38:38.409Z,25.50
2018-08-09T17:41:06.944Z,25.50
2018-08-09T17:43:35.514Z,25.40
2018-08-09T17:46:04.191Z,25.50
2018-08-09T17:48:32.679Z,25.40
2018-08-09T17:51:01.131Z,25.40
2018-08-09T17:53:29.644Z,25.30
2018-08-09T17:55:58.121Z,25.20
2018-08-09T17:58:26.617Z,25.30
2018-08-09T18:00:55.092Z,25.20
2018-08-09T18:03:23.630Z,25.10
2018-08-09T18:05:52.100Z,25.10
2018-08-09T18:08:20.585Z,24.90
2018-08-09T18:10:49.068Z,24.80
2018-08-09T18:13:17.569Z,24.80
2018-08-09T18:15:46.093Z,24.60
2018-08-09T18:18:14.594Z,24.60
2018-08-09T18:20:43.098Z,24.50
2018-08-09T18:23:11.577Z,24.30
2018-08-09T18:25:40.014Z,24.10
2018-08-09T18:28:09.622Z,23.90
2018-08-09T18:30:38.104Z,23.80
2018-08-09T18:33:06.684Z,23.70
2018-08-09T18:35:35.193Z,23.60
2018-08-09T18:38:03.724Z,23.40
2018-08-09T18:40:32.212Z,23.30
2018-08-09T18:43:00.777Z,23.20
2018-08-09T18:45:29.257Z,23.10
2018-08-09T18:47:57.753Z,23.00
2018-08-09T18:50:29.329Z,22.90
2018-08-09T18:52:57.916Z,22.70
2018-08-09T18:55:26.416Z,22.60
2018-08-09T18:57:54.909Z,22.50
2018-08-09T19:00:25.364Z,22.30
2018-08-09T19:02:54.125Z,22.20
2018-08-09T19:05:22.745Z,22.10
2018-08-09T19:07:51.266Z,22.10
2018-08-09T19:10:23.688Z,22.10
2018-08-09T19:12:52.169Z,22.00
2018-08-09T19:15:20.779Z,21.90
2018-08-09T19:17:49.361Z,21.90
2018-08-09T19:20:21.550Z,21.80
2018-08-09T19:22:50.206Z,21.80
2018-08-09T19:25:18.810Z,21.70
2018-08-09T19:27:47.320Z,21.70
2018-08-09T19:30:17.236Z,21.70
2018-08-09T19:32:45.727Z,21.70
2018-08-09T19:35:15.533Z,21.70
2018-08-09T19:37:44.114Z,21.70
2018-08-09T19:40:14.143Z,21.60
2018-08-09T19:42:42.705Z,21.60
2018-08-09T19:45:13.549Z,21.60
2018-08-09T19:47:42.094Z,21.50
2018-08-09T19:50:12.531Z,21.50
2018-08-09T19:52:41.048Z,21.40
2018-08-09T19:55:11.980Z,21.40
2018-08-09T19:57:41.987Z,21.30
2018-08-09T20:00:12.593Z,21.30
2018-08-09T20:02:41.136Z,21.30
2018-08-09T20:05:10.580Z,21.20
2018-08-09T20:07:39.484Z,21.20
2018-08-09T20:10:09.283Z,21.20
2018-08-09T20:12:37.847Z,21.20
2018-08-09T20:15:12.631Z,21.10
2018-08-09T20:17:41.230Z,21.10
2018-08-09T20:20:10.973Z,21.10
2018-08-09T20:22:39.455Z,21.00
2018-08-09T20:25:09.200Z,21.00
2018-08-09T20:27:37.765Z,21.00
2018-08-09T20:30:09.393Z,20.90
2018-08-09T20:32:38.081Z,20.90
2018-08-09T20:35:08.949Z,20.90
2018-08-09T20:37:37.484Z,20.80
2018-08-09T20:40:06.931Z,20.80
2018-08-09T20:42:35.413Z,20.80
2018-08-09T20:45:04.373Z,20.70
2018-08-09T20:47:32.865Z,20.70
2018-08-09T20:50:01.304Z,20.60
2018-08-09T20:52:29.810Z,20.60
2018-08-09T20:54:58.259Z,20.50
2018-08-09T20:57:26.721Z,20.50
2018-08-09T20:59:55.147Z,20.40
2018-08-09T21:02:24.033Z,20.30
2018-08-09T21:04:52.519Z,20.20
2018-08-09T21:07:20.972Z,20.10
2018-08-09T21:09:49.441Z,20.00
2018-08-09T21:12:18.613Z,19.90
2018-08-09T21:14:47.100Z,19.70
2018-08-09T21:17:15.570Z,19.70
2018-08-09T21:19:44.102Z,19.50
2018-08-09T21:22:12.589Z,19.30
2018-08-09T21:24:41.065Z,19.20
2018-08-09T21:27:09.513Z,19.20
2018-08-09T21:29:38.006Z,19.10
2018-08-09T21:32:06.485Z,19.00
2018-08-09T21:34:34.989Z,18.90
2018-08-09T21:37:03.437Z,18.80
2018-08-09T21:39:31.940Z,18.70
2018-08-09T21:42:00.373Z,18.70
2018-08-09T21:44:28.848Z,18.70
2018-08-09T21:46:57.309Z,18.70
2018-08-09T21:49:25.756Z,18.70
2018-08-09T21:51:54.189Z,18.70
2018-08-09T21:54:22.629Z,18.80
2018-08-09T21:56:51.135Z,18.80
2018-08-09T21:59:19.626Z,18.90
2018-08-09T22:01:48.117Z,19.00
2018-08-09T22:04:16.561Z,19.00
2018-08-09T22:06:50.334Z,18.90
2018-08-09T22:09:24.092Z,18.90
2018-08-09T22:11:57.974Z,18.90
2018-08-09T22:14:31.761Z,18.80
2018-08-09T22:17:05.674Z,18.70
2018-08-09T22:19:39.438Z,18.70
2018-08-09T22:22:11.429Z,18.60
2018-08-09T22:24:40.323Z,18.50
2018-08-09T22:27:09.384Z,18.40
2018-08-09T22:29:37.881Z,18.30
2018-08-09T22:32:06.443Z,18.30
2018-08-09T22:34:34.905Z,18.30
2018-08-09T22:37:03.438Z,18.30
2018-08-09T22:39:31.882Z,18.30
2018-08-09T22:42:00.351Z,18.30
2018-08-09T22:44:28.819Z,18.20
2018-08-09T22:46:57.310Z,18.20
2018-08-09T22:49:25.802Z,18.20
2018-08-09T22:51:54.276Z,18.20
2018-08-09T22:54:22.767Z,18.10
2018-08-09T22:56:51.289Z,18.10
2018-08-09T22:59:19.896Z,18.10
2018-08-09T23:01:48.462Z,18.10
2018-08-09T23:04:16.936Z,18.20
2018-08-09T23:06:45.431Z,18.10
2018-08-09T23:09:13.917Z,18.10
2018-08-09T23:11:42.375Z,18.10
2018-08-09T23:14:10.826Z,18.10
2018-08-09T23:16:39.379Z,18.20
2018-08-09T23:19:07.917Z,18.20
2018-08-09T23:21:36.426Z,18.20
2018-08-09T23:24:04.926Z,18.30
2018-08-09T23:26:33.392Z,18.10
2018-08-09T23:29:01.852Z,17.80
2018-08-09T23:31:30.322Z,17.50
2018-08-09T23:33:58.765Z,17.30
2018-08-09T23:36:27.208Z,17.00
2018-08-09T23:38:55.642Z,16.80
2018-08-09T23:41:24.101Z,16.60
2018-08-09T23:43:52.522Z,16.50
2018-08-09T23:46:20.969Z,16.40
2018-08-09T23:48:49.458Z,16.50
2018-08-09T23:51:17.942Z,16.40
2018-08-09T23:53:46.400Z,16.40
2018-08-09T23:56:14.848Z,16.40
2018-08-09T23:58:43.376Z,16.40
